createdAt,value
2017-08-23T00:02:05.741Z,99.90
2017-08-23T00:04:33.287Z,99.90
2017-08-23T00:07:00.832Z,99.90
2017-08-23T00:09:28.715Z,99.90
2017-08-23T00:11:56.245Z,99.90
2017-08-23T00:14:23.814Z,99.90
2017-08-23T00:16:51.453Z,99.90
2017-08-23T00:19:18.978Z,99.90
2017-08-23T00:21:47.113Z,99.90
2017-08-23T00:24:14.630Z,99.90
2017-08-23T00:26:42.172Z,99.90
2017-08-23T00:29:09.710Z,99.90
2017-08-23T00:31:37.747Z,99.90
2017-08-23T00:34:05.262Z,99.90
2017-08-23T00:36:32.816Z,99.90
2017-08-23T00:39:00.355Z,99.90
2017-08-23T00:41:27.884Z,99.90
2017-08-23T00:43:55.409Z,99.90
2017-08-23T00:46:22.934Z,99.90
2017-08-23T00:48:50.471Z,99.90
2017-08-23T00:51:18.051Z,99.90
2017-08-23T00:53:45.849Z,99.90
2017-08-23T00:56:14.215Z,99.90
2017-08-23T00:58:41.755Z,99.90
2017-08-23T01:01:09.311Z,99.90
2017-08-23T01:03:36.850Z,99.90
2017-08-23T01:06:04.411Z,99.90
2017-08-23T01:08:32.519Z,99.90
2017-08-23T01:11:00.380Z,99.90
2017-08-23T01:13:27.899Z,99.90
2017-08-23T01:15:55.442Z,99.90
2017-08-23T01:18:23.754Z,99.90
2017-08-23T01:20:51.276Z,99.90
2017-08-23T01:23:18.810Z,99.90
2017-08-23T01:25:46.330Z,99.90
2017-08-23T01:28:13.894Z,99.90
2017-08-23T01:30:41.424Z,99.90
2017-08-23T01:33:08.968Z,99.90
2017-08-23T01:35:36.512Z,99.90
2017-08-23T01:38:04.098Z,99.90
2017-08-23T01:40:31.647Z,99.90
2017-08-23T01:42:59.948Z,99.90
2017-08-23T01:45:27.574Z,99.90
2017-08-23T01:47:55.101Z,99.90
2017-08-23T01:50:22.659Z,99.90
2017-08-23T01:52:50.225Z,99.90
2017-08-23T01:55:17.764Z,99.90
2017-08-23T01:57:46.121Z,99.90
2017-08-23T02:00:13.684Z,99.90
2017-08-23T02:02:41.245Z,99.90
2017-08-23T02:05:08.804Z,99.90
2017-08-23T02:07:36.426Z,99.90
2017-08-23T02:10:04.470Z,99.90
2017-08-23T02:12:31.987Z,99.90
2017-08-23T02:14:59.555Z,99.90
2017-08-23T02:17:27.096Z,99.90
2017-08-23T02:19:54.681Z,99.90
2017-08-23T02:22:22.217Z,99.90
2017-08-23T02:24:49.809Z,99.90
2017-08-23T02:27:17.393Z,99.90
2017-08-23T02:29:44.989Z,99.90
2017-08-23T02:32:12.548Z,99.90
2017-08-23T02:34:40.087Z,99.90
2017-08-23T02:37:07.621Z,99.90
2017-08-23T02:39:35.159Z,99.90
2017-08-23T02:42:02.688Z,99.90
2017-08-23T02:44:31.471Z,99.90
2017-08-23T02:46:59.005Z,99.90
2017-08-23T02:49:26.542Z,99.90
2017-08-23T02:51:54.052Z,99.90
2017-08-23T02:54:21.605Z,99.90
2017-08-23T02:56:49.116Z,99.90
2017-08-23T02:59:16.773Z,99.90
2017-08-23T03:01:44.336Z,99.90
2017-08-23T03:04:11.840Z,99.90
2017-08-23T03:06:39.400Z,99.90
2017-08-23T03:09:06.924Z,99.90
2017-08-23T03:11:34.457Z,99.90
2017-08-23T03:14:01.989Z,99.90
2017-08-23T03:16:29.540Z,99.90
2017-08-23T03:18:58.312Z,99.90
2017-08-23T03:21:25.844Z,99.90
2017-08-23T03:23:53.460Z,99.90
2017-08-23T03:26:20.994Z,99.90
2017-08-23T03:28:48.543Z,99.90
2017-08-23T03:31:16.056Z,99.90
2017-08-23T03:33:43.589Z,99.90
2017-08-23T03:36:11.160Z,99.90
2017-08-23T03:38:38.722Z,99.90
2017-08-23T03:41:06.295Z,99.90
2017-08-23T03:43:33.829Z,99.90
2017-08-23T03:46:01.407Z,99.90
2017-08-23T03:48:28.930Z,99.90
2017-08-23T03:50:56.545Z,99.90
2017-08-23T03:53:24.095Z,99.90
2017-08-23T03:55:51.619Z,99.90
2017-08-23T03:58:19.164Z,99.90
2017-08-23T04:00:46.673Z,99.90
2017-08-23T04:03:14.204Z,99.90
2017-08-23T04:05:41.793Z,99.90
2017-08-23T04:08:09.350Z,99.90
2017-08-23T04:10:36.908Z,99.90
2017-08-23T04:13:04.467Z,99.90
2017-08-23T04:15:32.018Z,99.90
2017-08-23T04:17:59.553Z,99.90
2017-08-23T04:20:27.100Z,99.90
2017-08-23T04:22:54.693Z,99.90
2017-08-23T04:25:22.557Z,99.90
2017-08-23T04:27:50.102Z,99.90
2017-08-23T04:30:17.638Z,99.90
2017-08-23T04:32:45.162Z,99.90
2017-08-23T04:35:12.697Z,99.90
2017-08-23T04:37:40.246Z,99.90
2017-08-23T04:40:07.854Z,99.90
2017-08-23T04:42:35.702Z,99.90
2017-08-23T04:45:03.248Z,99.90
2017-08-23T04:47:30.764Z,99.90
2017-08-23T04:49:59.147Z,99.90
2017-08-23T04:52:26.678Z,99.90
2017-08-23T04:54:54.251Z,99.90
2017-08-23T04:57:21.766Z,99.90
2017-08-23T04:59:49.299Z,99.90
2017-08-23T05:02:16.836Z,99.90
2017-08-23T05:04:44.394Z,99.90
2017-08-23T05:07:11.946Z,99.90
2017-08-23T05:09:39.462Z,99.90
2017-08-23T05:12:06.998Z,99.90
2017-08-23T05:14:35.190Z,99.90
2017-08-23T05:17:02.721Z,99.90
2017-08-23T05:19:30.257Z,99.90
2017-08-23T05:22:00.712Z,99.90
2017-08-23T05:24:28.260Z,99.90
2017-08-23T05:26:55.801Z,99.90
2017-08-23T05:29:23.365Z,99.90
2017-08-23T05:31:50.931Z,99.90
2017-08-23T05:34:26.853Z,99.90
2017-08-23T05:36:54.395Z,99.90
2017-08-23T05:39:22.012Z,99.90
2017-08-23T05:41:49.552Z,99.90
2017-08-23T05:44:17.857Z,99.90
2017-08-23T05:46:45.399Z,99.90
2017-08-23T05:49:12.926Z,99.90
2017-08-23T05:51:40.803Z,99.90
2017-08-23T05:54:08.335Z,99.90
2017-08-23T05:56:35.865Z,99.90
2017-08-23T05:59:03.408Z,99.90
2017-08-23T06:01:30.938Z,99.90
2017-08-23T06:03:58.467Z,99.90
2017-08-23T06:06:25.996Z,99.90
2017-08-23T06:08:53.844Z,99.90
2017-08-23T06:11:21.388Z,99.90
2017-08-23T06:13:48.910Z,99.90
2017-08-23T06:16:16.474Z,99.90
2017-08-23T06:18:44.019Z,99.90
2017-08-23T06:21:11.560Z,99.90
2017-08-23T06:23:39.097Z,99.90
2017-08-23T06:26:06.893Z,99.90
2017-08-23T06:28:34.431Z,99.90
2017-08-23T06:31:01.985Z,99.90
2017-08-23T06:33:29.540Z,99.90
2017-08-23T06:35:57.836Z,99.90
2017-08-23T06:38:25.369Z,99.90
2017-08-23T06:40:52.904Z,99.90
2017-08-23T06:43:20.793Z,99.90
2017-08-23T06:45:48.321Z,99.90
2017-08-23T06:48:15.877Z,99.90
2017-08-23T06:50:43.765Z,99.90
2017-08-23T06:53:11.328Z,99.90
2017-08-23T06:55:38.916Z,99.90
2017-08-23T06:58:06.450Z,99.90
2017-08-23T07:00:34.250Z,99.90
2017-08-23T07:03:01.768Z,99.90
2017-08-23T07:05:29.278Z,99.90
2017-08-23T07:07:56.840Z,99.90
2017-08-23T07:10:24.360Z,99.90
2017-08-23T07:12:51.895Z,99.90
2017-08-23T07:15:19.428Z,99.90
2017-08-23T07:17:47.308Z,99.90
2017-08-23T07:20:14.849Z,99.90
2017-08-23T07:22:42.379Z,99.90
2017-08-23T07:25:09.904Z,99.90
2017-08-23T07:27:37.442Z,99.90
2017-08-23T07:30:04.979Z,99.90
2017-08-23T07:32:32.505Z,99.90
2017-08-23T07:35:00.447Z,99.90
2017-08-23T07:37:27.974Z,99.90
2017-08-23T07:39:56.319Z,99.90
2017-08-23T07:42:23.854Z,99.90
2017-08-23T07:44:51.367Z,99.90
2017-08-23T07:47:18.925Z,99.90
2017-08-23T07:49:46.484Z,99.90
2017-08-23T07:52:14.424Z,99.90
2017-08-23T07:54:41.945Z,99.90
2017-08-23T07:57:09.570Z,99.90
2017-08-23T07:59:37.129Z,99.90
2017-08-23T08:02:06.551Z,99.90
2017-08-23T08:04:34.879Z,99.90
2017-08-23T08:07:02.396Z,99.90
2017-08-23T08:09:30.219Z,99.90
2017-08-23T08:11:57.749Z,99.90
2017-08-23T08:14:27.124Z,99.90
2017-08-23T08:16:55.450Z,99.90
2017-08-23T08:19:22.980Z,99.90
2017-08-23T08:21:50.535Z,99.90
2017-08-23T08:24:18.115Z,99.90
2017-08-23T08:26:46.017Z,99.90
2017-08-23T08:29:14.068Z,99.90
2017-08-23T08:31:41.601Z,99.90
2017-08-23T08:34:09.148Z,99.90
2017-08-23T08:36:36.774Z,99.90
2017-08-23T08:39:04.384Z,99.90
2017-08-23T08:41:31.920Z,99.90
2017-08-23T08:43:59.758Z,99.90
2017-08-23T08:46:28.067Z,99.90
2017-08-23T08:48:55.616Z,99.90
2017-08-23T08:51:23.166Z,99.90
2017-08-23T08:53:50.790Z,99.90
2017-08-23T08:56:18.712Z,99.90
2017-08-23T08:58:48.609Z,99.90
2017-08-23T09:01:16.499Z,99.70
2017-08-23T09:03:44.036Z,97.30
2017-08-23T09:06:11.685Z,95.30
2017-08-23T09:08:39.223Z,95.30
2017-08-23T09:11:06.750Z,96.10
2017-08-23T09:13:34.294Z,95.30
2017-08-23T09:16:01.903Z,95.60
2017-08-23T09:18:29.436Z,95.20
2017-08-23T09:20:56.999Z,96.00
2017-08-23T09:23:24.556Z,94.80
2017-08-23T09:25:52.103Z,93.30
2017-08-23T09:28:19.665Z,92.80
2017-08-23T09:30:47.209Z,94.00
2017-08-23T09:33:17.082Z,93.80
2017-08-23T09:35:44.934Z,94.40
2017-08-23T09:38:13.745Z,93.70
2017-08-23T09:40:42.652Z,92.50
2017-08-23T09:43:10.201Z,92.00
2017-08-23T09:45:37.720Z,93.00
2017-08-23T09:48:05.263Z,93.90
2017-08-23T09:50:32.795Z,93.40
2017-08-23T09:53:00.738Z,92.50
2017-08-23T09:55:28.263Z,92.90
2017-08-23T09:57:55.793Z,91.50
2017-08-23T10:00:24.851Z,92.00
2017-08-23T10:02:53.246Z,91.90
2017-08-23T10:05:21.369Z,90.90
2017-08-23T10:07:48.888Z,91.20
2017-08-23T10:10:16.865Z,91.10
2017-08-23T10:12:44.400Z,91.10
2017-08-23T10:15:11.949Z,90.80
2017-08-23T10:17:39.504Z,91.70
2017-08-23T10:20:07.052Z,90.30
2017-08-23T10:22:34.937Z,92.60
2017-08-23T10:25:02.480Z,90.40
2017-08-23T10:27:29.991Z,89.20
2017-08-23T10:29:57.550Z,89.60
2017-08-23T10:32:25.078Z,90.30
2017-08-23T10:34:52.637Z,90.30
2017-08-23T10:37:20.163Z,89.60
2017-08-23T10:39:48.516Z,84.50
2017-08-23T10:42:18.338Z,85.60
2017-08-23T10:44:45.866Z,84.50
2017-08-23T10:47:14.047Z,87.00
2017-08-23T10:49:41.576Z,85.60
2017-08-23T10:52:14.507Z,84.60
2017-08-23T10:54:42.819Z,85.50
2017-08-23T10:57:13.675Z,85.50
2017-08-23T10:59:42.046Z,84.20
2017-08-23T11:02:17.534Z,85.90
2017-08-23T11:04:46.949Z,83.00
2017-08-23T11:07:15.244Z,82.90
2017-08-23T11:09:42.815Z,82.20
2017-08-23T11:12:10.348Z,82.60
2017-08-23T11:14:37.871Z,82.50
2017-08-23T11:17:05.446Z,84.60
2017-08-23T11:19:35.817Z,82.70
2017-08-23T11:22:07.038Z,82.70
2017-08-23T11:24:34.573Z,81.50
2017-08-23T11:27:03.003Z,83.80
2017-08-23T11:29:31.334Z,78.40
2017-08-23T11:32:04.294Z,81.80
2017-08-23T11:34:32.008Z,84.20
2017-08-23T11:36:59.524Z,80.50
2017-08-23T11:39:27.090Z,79.10
2017-08-23T11:41:54.628Z,76.10
2017-08-23T11:44:22.188Z,81.90
2017-08-23T11:46:49.739Z,80.00
2017-08-23T11:49:18.810Z,77.90
2017-08-23T11:51:47.164Z,78.70
2017-08-23T11:54:16.796Z,80.40
2017-08-23T11:56:44.324Z,80.50
2017-08-23T11:59:11.904Z,81.30
2017-08-23T12:01:39.428Z,78.80
2017-08-23T12:04:06.962Z,82.40
2017-08-23T12:06:36.118Z,79.30
2017-08-23T12:09:03.658Z,81.40
2017-08-23T12:11:31.167Z,82.30
2017-08-23T12:13:59.268Z,81.50
2017-08-23T12:16:29.221Z,83.60
2017-08-23T12:18:56.744Z,81.00
2017-08-23T12:21:24.271Z,80.50
2017-08-23T12:23:51.808Z,81.00
2017-08-23T12:26:19.929Z,81.80
2017-08-23T12:28:47.459Z,82.70
2017-08-23T12:31:15.019Z,83.20
2017-08-23T12:33:43.619Z,83.80
2017-08-23T12:36:11.172Z,81.40
2017-08-23T12:38:38.734Z,81.90
2017-08-23T12:41:06.584Z,81.10
2017-08-23T12:43:34.100Z,81.50
2017-08-23T12:46:02.781Z,81.10
2017-08-23T12:48:31.072Z,79.20
2017-08-23T12:50:58.596Z,79.10
2017-08-23T12:53:26.147Z,79.10
2017-08-23T12:55:53.684Z,78.60
2017-08-23T12:58:21.559Z,78.90
2017-08-23T13:00:49.093Z,79.30
2017-08-23T13:03:16.676Z,78.70
2017-08-23T13:05:44.230Z,76.70
2017-08-23T13:08:11.832Z,78.40
2017-08-23T13:10:39.378Z,77.90
2017-08-23T13:13:08.318Z,74.30
2017-08-23T13:15:36.136Z,74.00
2017-08-23T13:18:03.663Z,76.10
2017-08-23T13:20:35.198Z,75.70
2017-08-23T13:23:02.758Z,72.70
2017-08-23T13:25:30.279Z,71.70
2017-08-23T13:27:57.840Z,71.40
2017-08-23T13:30:25.362Z,69.30
2017-08-23T13:32:53.456Z,67.70
2017-08-23T13:35:21.007Z,67.20
2017-08-23T13:37:48.554Z,67.90
2017-08-23T13:40:16.092Z,67.50
2017-08-23T13:42:46.355Z,66.20
2017-08-23T13:45:14.069Z,63.40
2017-08-23T13:47:41.603Z,61.10
2017-08-23T13:50:12.425Z,60.80
2017-08-23T13:55:23.110Z,59.70
2017-08-23T13:57:50.630Z,57.30
2017-08-23T14:00:18.180Z,55.90
2017-08-23T14:02:45.817Z,55.40
2017-08-23T14:05:13.365Z,54.40
2017-08-23T14:07:40.916Z,52.20
2017-08-23T14:10:08.446Z,52.50
2017-08-23T14:12:36.375Z,50.80
2017-08-23T14:15:03.918Z,50.20
2017-08-23T14:17:31.443Z,49.70
2017-08-23T14:19:59.739Z,51.30
2017-08-23T14:22:27.255Z,51.30
2017-08-23T14:24:56.942Z,50.80
2017-08-23T14:27:24.501Z,50.50
2017-08-23T14:29:52.059Z,48.70
2017-08-23T14:32:19.637Z,48.20
2017-08-23T14:34:47.173Z,48.70
2017-08-23T14:37:15.630Z,48.30
2017-08-23T14:39:43.188Z,47.30
2017-08-23T14:42:11.662Z,48.00
2017-08-23T14:44:39.184Z,47.40
2017-08-23T14:47:06.775Z,49.00
2017-08-23T14:49:34.339Z,47.80
2017-08-23T14:52:02.417Z,48.20
2017-08-23T14:54:30.036Z,49.50
2017-08-23T14:56:57.595Z,49.10
2017-08-23T14:59:30.621Z,50.40
2017-08-23T15:01:58.161Z,49.60
2017-08-23T15:04:26.471Z,50.10
2017-08-23T15:06:54.480Z,50.10
2017-08-23T15:09:22.029Z,50.10
2017-08-23T15:11:49.573Z,50.60
2017-08-23T15:14:17.096Z,51.60
2017-08-23T15:16:45.415Z,51.00
2017-08-23T15:19:12.971Z,51.00
2017-08-23T15:21:40.535Z,51.10
2017-08-23T15:24:08.095Z,50.40
2017-08-23T15:26:35.685Z,49.50
2017-08-23T15:29:04.746Z,49.50
2017-08-23T15:31:32.268Z,49.50
2017-08-23T15:33:59.819Z,50.10
2017-08-23T15:36:28.036Z,49.80
2017-08-23T15:38:55.598Z,50.30
2017-08-23T15:41:23.115Z,51.40
2017-08-23T15:43:50.637Z,51.90
2017-08-23T15:46:18.175Z,51.60
2017-08-23T15:48:49.917Z,51.00
2017-08-23T15:51:19.238Z,51.50
2017-08-23T15:53:48.744Z,51.20
2017-08-23T15:56:16.284Z,52.20
2017-08-23T15:58:49.464Z,53.90
2017-08-23T16:01:17.349Z,54.70
2017-08-23T16:03:44.880Z,56.20
2017-08-23T16:06:12.420Z,57.50
2017-08-23T16:08:39.949Z,57.70
2017-08-23T16:11:07.505Z,59.00
2017-08-23T16:13:35.102Z,59.00
2017-08-23T16:16:02.713Z,59.20
2017-08-23T16:18:30.563Z,61.10
2017-08-23T16:20:58.085Z,60.80
2017-08-23T16:23:25.613Z,62.80
2017-08-23T16:25:53.612Z,62.00
2017-08-23T16:28:21.164Z,62.20
2017-08-23T16:30:48.736Z,63.80
2017-08-23T16:33:16.279Z,64.50
2017-08-23T16:35:44.219Z,66.60
2017-08-23T16:38:12.420Z,68.30
2017-08-23T16:40:40.614Z,70.50
2017-08-23T16:43:11.030Z,71.40
2017-08-23T16:45:42.540Z,73.40
2017-08-23T16:50:59.830Z,75.70
2017-08-23T16:53:33.233Z,77.90
2017-08-23T16:58:34.260Z,79.20
2017-08-23T17:01:01.795Z,82.60
2017-08-23T17:03:29.327Z,85.50
2017-08-23T17:05:56.871Z,85.00
2017-08-23T17:08:24.405Z,85.80
2017-08-23T17:10:51.952Z,88.00
2017-08-23T17:13:19.485Z,88.30
2017-08-23T17:15:47.276Z,90.20
2017-08-23T17:18:14.801Z,90.80
2017-08-23T17:20:42.383Z,92.00
2017-08-23T17:23:09.934Z,92.40
2017-08-23T17:25:37.462Z,93.20
2017-08-23T17:28:05.034Z,93.40
2017-08-23T17:30:32.625Z,93.70
2017-08-23T17:33:00.144Z,93.70
2017-08-23T17:35:27.708Z,94.30
2017-08-23T17:37:55.259Z,94.40
2017-08-23T17:40:22.835Z,94.60
2017-08-23T17:42:50.367Z,95.70
2017-08-23T17:45:17.902Z,96.60
2017-08-23T17:47:45.452Z,95.50
2017-08-23T17:50:13.018Z,95.70
2017-08-23T17:52:40.577Z,96.30
2017-08-23T17:55:08.114Z,96.60
2017-08-23T17:57:35.654Z,96.40
2017-08-23T18:00:03.205Z,96.30
2017-08-23T18:02:33.335Z,96.30
2017-08-23T18:05:00.902Z,96.60
2017-08-23T18:07:28.438Z,96.00
2017-08-23T18:09:56.414Z,96.30
2017-08-23T18:12:23.962Z,96.20
2017-08-23T18:14:51.506Z,96.80
2017-08-23T18:17:19.030Z,97.30
2017-08-23T18:19:46.548Z,97.10
2017-08-23T18:22:14.086Z,96.30
2017-08-23T18:24:41.642Z,98.10
2017-08-23T18:27:09.210Z,98.30
2017-08-23T18:29:36.791Z,99.90
2017-08-23T18:32:04.576Z,99.90
2017-08-23T18:34:32.442Z,99.90
2017-08-23T18:36:59.979Z,99.90
2017-08-23T18:39:27.527Z,99.90
2017-08-23T18:41:55.458Z,99.90
2017-08-23T18:44:23.020Z,99.90
2017-08-23T18:46:50.548Z,99.90
2017-08-23T18:49:18.105Z,99.90
2017-08-23T18:51:45.673Z,99.90
2017-08-23T18:54:13.238Z,99.90
2017-08-23T18:56:40.800Z,99.90
2017-08-23T18:59:08.326Z,99.90
2017-08-23T19:01:36.707Z,99.90
2017-08-23T19:04:04.278Z,99.90
2017-08-23T19:06:31.823Z,99.90
2017-08-23T19:08:59.637Z,99.90
2017-08-23T19:11:28.012Z,99.90
2017-08-23T19:13:55.551Z,99.90
2017-08-23T19:16:23.117Z,99.90
2017-08-23T19:18:50.706Z,99.90
2017-08-23T19:21:18.237Z,99.90
2017-08-23T19:23:45.794Z,99.90
2017-08-23T19:26:13.314Z,99.90
2017-08-23T19:28:40.893Z,99.90
2017-08-23T19:31:08.437Z,99.90
2017-08-23T19:33:35.967Z,99.90
2017-08-23T19:36:03.653Z,99.90
2017-08-23T19:38:31.232Z,99.90
2017-08-23T19:40:58.840Z,99.90
2017-08-23T19:43:26.402Z,99.90
2017-08-23T19:45:55.319Z,99.90
2017-08-23T19:48:22.884Z,99.90
2017-08-23T19:50:50.437Z,99.90
2017-08-23T19:53:17.964Z,99.90
2017-08-23T19:55:46.260Z,99.90
2017-08-23T19:58:13.827Z,99.90
2017-08-23T20:00:41.373Z,99.90
2017-08-23T20:03:08.932Z,99.90
2017-08-23T20:05:36.506Z,99.90
2017-08-23T20:08:04.042Z,99.90
2017-08-23T20:10:31.617Z,99.90
2017-08-23T20:12:59.163Z,99.90
2017-08-23T20:15:27.085Z,99.90
2017-08-23T20:17:54.681Z,99.90
2017-08-23T20:20:22.219Z,99.90
2017-08-23T20:22:49.781Z,99.90
2017-08-23T20:25:18.101Z,99.90
2017-08-23T20:27:45.636Z,99.90
2017-08-23T20:30:13.192Z,99.90
2017-08-23T20:32:40.741Z,99.90
2017-08-23T20:35:08.285Z,99.90
2017-08-23T20:37:35.831Z,99.90
2017-08-23T20:40:03.379Z,99.90
2017-08-23T20:42:30.903Z,99.90
2017-08-23T20:44:58.473Z,99.90
2017-08-23T20:47:26.017Z,99.90
2017-08-23T20:49:53.617Z,99.90
2017-08-23T20:52:21.172Z,99.90
2017-08-23T20:54:48.785Z,99.90
2017-08-23T20:57:16.347Z,99.90
2017-08-23T20:59:43.934Z,99.90
2017-08-23T21:02:11.733Z,99.90
2017-08-23T21:04:39.336Z,99.90
2017-08-23T21:07:06.875Z,99.90
2017-08-23T21:09:34.460Z,99.90
2017-08-23T21:12:02.751Z,99.90
2017-08-23T21:14:30.301Z,99.90
2017-08-23T21:16:57.869Z,99.90
2017-08-23T21:19:25.655Z,99.90
2017-08-23T21:21:53.212Z,99.90
2017-08-23T21:24:20.741Z,99.90
2017-08-23T21:26:48.302Z,99.90
2017-08-23T21:29:15.847Z,99.90
2017-08-23T21:31:43.657Z,99.90
2017-08-23T21:34:11.192Z,99.90
2017-08-23T21:36:39.043Z,99.90
2017-08-23T21:39:06.580Z,99.90
2017-08-23T21:41:34.861Z,99.90
2017-08-23T21:44:02.384Z,99.90
2017-08-23T21:46:29.915Z,99.90
2017-08-23T21:48:57.469Z,99.90
2017-08-23T21:51:25.021Z,99.90
2017-08-23T21:53:52.895Z,99.90
2017-08-23T21:56:20.427Z,99.90
2017-08-23T21:58:47.946Z,99.90
2017-08-23T22:01:15.493Z,99.90
2017-08-23T22:03:43.032Z,99.90
2017-08-23T22:06:10.599Z,99.90
2017-08-23T22:08:38.136Z,99.90
2017-08-23T22:11:05.675Z,99.90
2017-08-23T22:13:33.980Z,99.90
2017-08-23T22:16:01.508Z,99.90
2017-08-23T22:18:29.035Z,99.90
2017-08-23T22:20:56.839Z,99.90
2017-08-23T22:23:24.400Z,99.90
2017-08-23T22:25:51.930Z,99.90
2017-08-23T22:28:19.456Z,99.90
2017-08-23T22:30:46.990Z,99.90
2017-08-23T22:33:14.529Z,99.90
2017-08-23T22:35:42.067Z,99.90
2017-08-23T22:38:09.596Z,99.90
2017-08-23T22:40:37.132Z,99.90
2017-08-23T22:43:04.682Z,99.90
2017-08-23T22:45:32.238Z,99.90
2017-08-23T22:48:00.571Z,99.90
2017-08-23T22:50:28.111Z,99.90
2017-08-23T22:52:55.638Z,99.90
2017-08-23T22:55:23.179Z,99.90
2017-08-23T22:57:50.728Z,99.90
2017-08-23T23:00:18.259Z,99.90
2017-08-23T23:02:46.120Z,99.90
2017-08-23T23:05:13.663Z,99.90
2017-08-23T23:07:41.180Z,99.90
2017-08-23T23:10:09.165Z,99.90
2017-08-23T23:12:36.709Z,99.90
2017-08-23T23:15:04.258Z,99.90
2017-08-23T23:17:31.817Z,99.90
2017-08-23T23:19:59.618Z,99.90
2017-08-23T23:22:27.145Z,99.90
2017-08-23T23:24:54.702Z,99.90
2017-08-23T23:27:22.266Z,99.90
2017-08-23T23:29:49.827Z,99.90
2017-08-23T23:32:18.132Z,99.90
2017-08-23T23:34:45.662Z,99.90
2017-08-23T23:37:13.214Z,99.90
2017-08-23T23:39:40.770Z,99.90
2017-08-23T23:42:08.293Z,99.90
2017-08-23T23:44:35.842Z,99.90
2017-08-23T23:47:03.413Z,99.90
2017-08-23T23:49:30.946Z,99.90
2017-08-23T23:51:58.518Z,99.90
2017-08-23T23:54:26.046Z,99.90
2017-08-23T23:56:53.592Z,99.90
2017-08-23T23:59:21.882Z,99.90
